AYGN/GUR METAR and TAF weather

Enter ICAO airport designator
Station Type Date Time Source
AYGN METAR 2018/07/30 03:00 UTC NOAA

AYGN 300300Z 00000KT 9999 SCT020 BKN050 27/23 Q1014 HZ


Station Type Date Time Source
AYGN Decoded METAR 2018/07/30 03:00 UTC NOAA

Station name not available
Jul 29, 2018 - 11:00 PM EDT / 2018.07.30 0300 UTC
Wind: Calm:0
Visibility: greater than 7 mile(s):0
Sky conditions: mostly cloudy
Temperature: 80 F (27 C)
Dew Point: 73 F (23 C)
Relative Humidity: 78%
Pressure (altimeter): 29.94 in. Hg (1014 hPa)
ob: AYGN 300300Z 00000KT 9999 SCT020 BKN050 27/23 Q1014 HZ
cycle: 3

Station Type Date Time Source
AYGN TAF UTC NOAA

Error!


Example: see airport list